sensor_id;sensor_type;location;lat;lon;timestamp;P1;durP1;ratioP1;P2;durP2;ratioP2
48897;SDS011;34713;50.038;20.000;2023-03-12T00:01:09;19.20;;;11.00;;
48897;SDS011;34713;50.038;20.000;2023-03-12T00:03:44;18.70;;;11.30;;
48897;SDS011;34713;50.038;20.000;2023-03-12T00:06:10;20.20;;;11.80;;
48897;SDS011;34713;50.038;20.000;2023-03-12T00:11:33;18.50;;;11.70;;
48897;SDS011;34713;50.038;20.000;2023-03-12T00:14:00;19.40;;;11.10;;
48897;SDS011;34713;50.038;20.000;2023-03-12T00:16:27;17.90;;;10.80;;
48897;SDS011;34713;50.038;20.000;2023-03-12T00:18:57;17.20;;;10.70;;
48897;SDS011;34713;50.038;20.000;2023-03-12T00:24:06;19.80;;;10.80;;
48897;SDS011;34713;50.038;20.000;2023-03-12T00:26:39;15.10;;;9.90;;
48897;SDS011;34713;50.038;20.000;2023-03-12T00:29:27;19.50;;;10.50;;
48897;SDS011;34713;50.038;20.000;2023-03-12T00:32:33;17.30;;;9.30;;
48897;SDS011;34713;50.038;20.000;2023-03-12T00:38:25;18.10;;;9.70;;
48897;SDS011;34713;50.038;20.000;2023-03-12T00:41:31;15.00;;;9.10;;
48897;SDS011;34713;50.038;20.000;2023-03-12T00:43:57;14.40;;;8.50;;
48897;SDS011;34713;50.038;20.000;2023-03-12T01:02:43;13.60;;;7.70;;
48897;SDS011;34713;50.038;20.000;2023-03-12T01:08:07;12.50;;;8.10;;
48897;SDS011;34713;50.038;20.000;2023-03-12T01:10:35;14.00;;;8.90;;
48897;SDS011;34713;50.038;20.000;2023-03-12T01:13:06;17.30;;;9.60;;
48897;SDS011;34713;50.038;20.000;2023-03-12T01:15:41;17.70;;;9.90;;
48897;SDS011;34713;50.038;20.000;2023-03-12T01:18:08;16.80;;;10.40;;
48897;SDS011;34713;50.038;20.000;2023-03-12T01:20:56;15.30;;;9.50;;
48897;SDS011;34713;50.038;20.000;2023-03-12T01:23:36;18.50;;;10.70;;
48897;SDS011;34713;50.038;20.000;2023-03-12T01:26:05;16.90;;;10.90;;
48897;SDS011;34713;50.038;20.000;2023-03-12T01:28:52;16.50;;;9.60;;
48897;SDS011;34713;50.038;20.000;2023-03-12T01:31:21;14.70;;;9.60;;
48897;SDS011;34713;50.038;20.000;2023-03-12T01:33:49;15.50;;;9.70;;
48897;SDS011;34713;50.038;20.000;2023-03-12T01:36:18;17.80;;;10.50;;
48897;SDS011;34713;50.038;20.000;2023-03-12T01:38:53;14.40;;;9.90;;
48897;SDS011;34713;50.038;20.000;2023-03-12T01:41:21;15.90;;;9.50;;
48897;SDS011;34713;50.038;20.000;2023-03-12T01:43:49;16.10;;;9.80;;
48897;SDS011;34713;50.038;20.000;2023-03-12T01:52:31;14.90;;;9.80;;
48897;SDS011;34713;50.038;20.000;2023-03-12T01:55:28;15.90;;;9.40;;
48897;SDS011;34713;50.038;20.000;2023-03-12T01:57:56;15.90;;;9.80;;
48897;SDS011;34713;50.038;20.000;2023-03-12T02:00:25;14.00;;;9.60;;
48897;SDS011;34713;50.038;20.000;2023-03-12T02:03:33;16.90;;;10.00;;
48897;SDS011;34713;50.038;20.000;2023-03-12T02:06:01;15.60;;;9.50;;
48897;SDS011;34713;50.038;20.000;2023-03-12T02:08:34;16.60;;;10.40;;
48897;SDS011;34713;50.038;20.000;2023-03-12T02:11:05;18.80;;;10.90;;
48897;SDS011;34713;50.038;20.000;2023-03-12T02:13:35;16.70;;;11.00;;
48897;SDS011;34713;50.038;20.000;2023-03-12T02:16:02;19.40;;;11.80;;
48897;SDS011;34713;50.038;20.000;2023-03-12T02:21:40;14.60;;;10.20;;
48897;SDS011;34713;50.038;20.000;2023-03-12T02:24:11;16.30;;;11.40;;
48897;SDS011;34713;50.038;20.000;2023-03-12T02:26:39;16.40;;;10.70;;
48897;SDS011;34713;50.038;20.000;2023-03-12T02:29:08;17.20;;;11.50;;
48897;SDS011;34713;50.038;20.000;2023-03-12T02:31:42;14.90;;;11.10;;
48897;SDS011;34713;50.038;20.000;2023-03-12T02:34:11;14.60;;;10.50;;
48897;SDS011;34713;50.038;20.000;2023-03-12T02:36:48;13.80;;;10.30;;
48897;SDS011;34713;50.038;20.000;2023-03-12T02:39:15;15.80;;;11.00;;
48897;SDS011;34713;50.038;20.000;2023-03-12T02:41:43;16.30;;;10.30;;
48897;SDS011;34713;50.038;20.000;2023-03-12T02:44:31;16.60;;;10.40;;
48897;SDS011;34713;50.038;20.000;2023-03-12T02:47:09;14.00;;;9.90;;
48897;SDS011;34713;50.038;20.000;2023-03-12T02:49:47;15.90;;;10.30;;
48897;SDS011;34713;50.038;20.000;2023-03-12T02:52:13;14.50;;;10.70;;
48897;SDS011;34713;50.038;20.000;2023-03-12T02:54:41;15.00;;;10.10;;
48897;SDS011;34713;50.038;20.000;2023-03-12T02:57:19;18.50;;;10.90;;
48897;SDS011;34713;50.038;20.000;2023-03-12T03:03:34;14.20;;;9.50;;
48897;SDS011;34713;50.038;20.000;2023-03-12T03:06:03;16.00;;;9.90;;
48897;SDS011;34713;50.038;20.000;2023-03-12T03:08:30;15.90;;;10.00;;
48897;SDS011;34713;50.038;20.000;2023-03-12T03:14:12;15.40;;;9.50;;
48897;SDS011;34713;50.038;20.000;2023-03-12T03:16:52;15.60;;;9.20;;
48897;SDS011;34713;50.038;20.000;2023-03-12T03:19:19;13.40;;;10.00;;
48897;SDS011;34713;50.038;20.000;2023-03-12T03:22:06;12.50;;;9.50;;
48897;SDS011;34713;50.038;20.000;2023-03-12T03:24:35;16.20;;;10.20;;
48897;SDS011;34713;50.038;20.000;2023-03-12T03:27:45;15.70;;;10.40;;
48897;SDS011;34713;50.038;20.000;2023-03-12T03:30:21;14.10;;;9.20;;
48897;SDS011;34713;50.038;20.000;2023-03-12T03:33:30;12.90;;;8.20;;
48897;SDS011;34713;50.038;20.000;2023-03-12T03:35:59;12.70;;;8.30;;
48897;SDS011;34713;50.038;20.000;2023-03-12T03:39:06;11.90;;;8.50;;
48897;SDS011;34713;50.038;20.000;2023-03-12T03:45:05;12.90;;;7.80;;
48897;SDS011;34713;50.038;20.000;2023-03-12T03:50:41;11.30;;;7.50;;
48897;SDS011;34713;50.038;20.000;2023-03-12T03:56:35;10.80;;;7.20;;
48897;SDS011;34713;50.038;20.000;2023-03-12T03:59:34;9.90;;;6.80;;
48897;SDS011;34713;50.038;20.000;2023-03-12T04:02:04;11.70;;;6.80;;
48897;SDS011;34713;50.038;20.000;2023-03-12T04:04:31;11.30;;;7.10;;
48897;SDS011;34713;50.038;20.000;2023-03-12T04:07:01;11.00;;;7.20;;
48897;SDS011;34713;50.038;20.000;2023-03-12T04:09:42;12.10;;;7.80;;
48897;SDS011;34713;50.038;20.000;2023-03-12T04:12:49;12.50;;;7.20;;
48897;SDS011;34713;50.038;20.000;2023-03-12T04:15:18;9.90;;;7.20;;
48897;SDS011;34713;50.038;20.000;2023-03-12T04:17:44;11.20;;;7.10;;
48897;SDS011;34713;50.038;20.000;2023-03-12T04:23:21;11.20;;;7.00;;
48897;SDS011;34713;50.038;20.000;2023-03-12T04:25:48;12.60;;;7.50;;
48897;SDS011;34713;50.038;20.000;2023-03-12T04:28:15;11.10;;;7.00;;
48897;SDS011;34713;50.038;20.000;2023-03-12T04:34:13;10.50;;;7.40;;
48897;SDS011;34713;50.038;20.000;2023-03-12T04:36:39;13.30;;;8.30;;
48897;SDS011;34713;50.038;20.000;2023-03-12T04:39:16;12.00;;;6.70;;
48897;SDS011;34713;50.038;20.000;2023-03-12T04:41:53;13.70;;;8.00;;
48897;SDS011;34713;50.038;20.000;2023-03-12T04:44:20;11.10;;;7.10;;
48897;SDS011;34713;50.038;20.000;2023-03-12T04:47:06;10.20;;;7.20;;
48897;SDS011;34713;50.038;20.000;2023-03-12T04:49:36;11.30;;;6.20;;
48897;SDS011;34713;50.038;20.000;2023-03-12T04:52:06;10.80;;;6.90;;
48897;SDS011;34713;50.038;20.000;2023-03-12T04:54:33;11.60;;;7.00;;
48897;SDS011;34713;50.038;20.000;2023-03-12T04:57:00;11.10;;;7.40;;
48897;SDS011;34713;50.038;20.000;2023-03-12T04:59:27;9.20;;;6.00;;
48897;SDS011;34713;50.038;20.000;2023-03-12T05:01:54;14.60;;;7.50;;
48897;SDS011;34713;50.038;20.000;2023-03-12T05:04:21;14.10;;;7.30;;
48897;SDS011;34713;50.038;20.000;2023-03-12T05:06:47;11.00;;;7.10;;
48897;SDS011;34713;50.038;20.000;2023-03-12T05:09:19;11.50;;;7.80;;
48897;SDS011;34713;50.038;20.000;2023-03-12T05:14:35;10.80;;;7.20;;
48897;SDS011;34713;50.038;20.000;2023-03-12T05:17:04;13.30;;;8.00;;
48897;SDS011;34713;50.038;20.000;2023-03-12T05:19:32;13.00;;;8.20;;
48897;SDS011;34713;50.038;20.000;2023-03-12T05:21:59;12.10;;;7.70;;
48897;SDS011;34713;50.038;20.000;2023-03-12T05:24:29;13.00;;;7.80;;
48897;SDS011;34713;50.038;20.000;2023-03-12T05:26:55;13.40;;;7.80;;
48897;SDS011;34713;50.038;20.000;2023-03-12T05:29:22;13.30;;;8.00;;
48897;SDS011;34713;50.038;20.000;2023-03-12T05:31:52;11.50;;;7.60;;
48897;SDS011;34713;50.038;20.000;2023-03-12T05:34:19;11.90;;;8.10;;
48897;SDS011;34713;50.038;20.000;2023-03-12T05:37:06;15.30;;;7.60;;
48897;SDS011;34713;50.038;20.000;2023-03-12T05:39:35;13.60;;;8.00;;
48897;SDS011;34713;50.038;20.000;2023-03-12T05:42:14;10.70;;;7.00;;
48897;SDS011;34713;50.038;20.000;2023-03-12T05:44:46;14.30;;;8.30;;
48897;SDS011;34713;50.038;20.000;2023-03-12T05:47:13;11.10;;;6.90;;
48897;SDS011;34713;50.038;20.000;2023-03-12T05:49:40;12.80;;;7.20;;
48897;SDS011;34713;50.038;20.000;2023-03-12T05:52:07;10.80;;;7.10;;
48897;SDS011;34713;50.038;20.000;2023-03-12T05:54:33;12.10;;;7.30;;
48897;SDS011;34713;50.038;20.000;2023-03-12T05:57:06;10.40;;;7.00;;
48897;SDS011;34713;50.038;20.000;2023-03-12T05:59:33;12.10;;;7.30;;
48897;SDS011;34713;50.038;20.000;2023-03-12T06:02:00;11.30;;;7.20;;
48897;SDS011;34713;50.038;20.000;2023-03-12T06:04:36;12.60;;;7.70;;
48897;SDS011;34713;50.038;20.000;2023-03-12T06:07:03;11.80;;;7.20;;
48897;SDS011;34713;50.038;20.000;2023-03-12T06:09:30;14.40;;;7.00;;
48897;SDS011;34713;50.038;20.000;2023-03-12T06:11:57;11.70;;;6.90;;
48897;SDS011;34713;50.038;20.000;2023-03-12T06:14:24;11.20;;;7.30;;
48897;SDS011;34713;50.038;20.000;2023-03-12T06:16:50;9.90;;;6.40;;
48897;SDS011;34713;50.038;20.000;2023-03-12T06:19:17;10.50;;;6.70;;
48897;SDS011;34713;50.038;20.000;2023-03-12T06:21:44;9.60;;;6.30;;
48897;SDS011;34713;50.038;20.000;2023-03-12T06:24:14;13.00;;;6.50;;
48897;SDS011;34713;50.038;20.000;2023-03-12T06:26:41;9.80;;;6.80;;
48897;SDS011;34713;50.038;20.000;2023-03-12T06:29:08;11.20;;;6.40;;
48897;SDS011;34713;50.038;20.000;2023-03-12T06:31:35;9.40;;;6.40;;
48897;SDS011;34713;50.038;20.000;2023-03-12T06:34:09;9.70;;;6.60;;
48897;SDS011;34713;50.038;20.000;2023-03-12T06:36:38;8.80;;;6.30;;
48897;SDS011;34713;50.038;20.000;2023-03-12T06:39:05;9.90;;;6.30;;
48897;SDS011;34713;50.038;20.000;2023-03-12T06:41:55;8.30;;;6.10;;
48897;SDS011;34713;50.038;20.000;2023-03-12T06:44:22;10.00;;;6.30;;
48897;SDS011;34713;50.038;20.000;2023-03-12T06:47:40;10.60;;;6.60;;
48897;SDS011;34713;50.038;20.000;2023-03-12T06:50:34;9.80;;;6.20;;
48897;SDS011;34713;50.038;20.000;2023-03-12T06:53:03;9.70;;;5.80;;
48897;SDS011;34713;50.038;20.000;2023-03-12T06:58:39;9.50;;;5.70;;
48897;SDS011;34713;50.038;20.000;2023-03-12T07:01:49;9.00;;;5.80;;
48897;SDS011;34713;50.038;20.000;2023-03-12T07:13:43;9.60;;;4.90;;
48897;SDS011;34713;50.038;20.000;2023-03-12T07:16:31;8.10;;;5.70;;
48897;SDS011;34713;50.038;20.000;2023-03-12T07:18:59;9.60;;;6.10;;
48897;SDS011;34713;50.038;20.000;2023-03-12T07:21:26;10.20;;;5.10;;
48897;SDS011;34713;50.038;20.000;2023-03-12T07:23:56;10.00;;;5.30;;
48897;SDS011;34713;50.038;20.000;2023-03-12T07:26:33;7.70;;;4.60;;
48897;SDS011;34713;50.038;20.000;2023-03-12T07:29:12;7.90;;;4.50;;
48897;SDS011;34713;50.038;20.000;2023-03-12T07:31:39;7.70;;;5.10;;
48897;SDS011;34713;50.038;20.000;2023-03-12T07:34:17;6.90;;;4.70;;
48897;SDS011;34713;50.038;20.000;2023-03-12T07:36:44;8.50;;;4.50;;
48897;SDS011;34713;50.038;20.000;2023-03-12T07:39:51;8.60;;;4.30;;
48897;SDS011;34713;50.038;20.000;2023-03-12T07:42:36;8.20;;;4.20;;
48897;SDS011;34713;50.038;20.000;2023-03-12T07:51:41;6.10;;;4.20;;
48897;SDS011;34713;50.038;20.000;2023-03-12T07:54:16;6.80;;;3.80;;
48897;SDS011;34713;50.038;20.000;2023-03-12T08:00:21;5.20;;;3.20;;
48897;SDS011;34713;50.038;20.000;2023-03-12T08:03:17;8.60;;;3.40;;
48897;SDS011;34713;50.038;20.000;2023-03-12T08:16:55;4.40;;;2.70;;
48897;SDS011;34713;50.038;20.000;2023-03-12T08:22:18;4.30;;;3.20;;
48897;SDS011;34713;50.038;20.000;2023-03-12T08:25:08;5.10;;;2.60;;
48897;SDS011;34713;50.038;20.000;2023-03-12T08:27:40;6.90;;;2.80;;
48897;SDS011;34713;50.038;20.000;2023-03-12T08:30:30;5.40;;;2.80;;
48897;SDS011;34713;50.038;20.000;2023-03-12T08:33:02;5.00;;;2.90;;
48897;SDS011;34713;50.038;20.000;2023-03-12T08:35:31;5.50;;;2.40;;
48897;SDS011;34713;50.038;20.000;2023-03-12T08:44:47;4.20;;;2.40;;
48897;SDS011;34713;50.038;20.000;2023-03-12T08:47:37;6.40;;;3.00;;
48897;SDS011;34713;50.038;20.000;2023-03-12T08:50:10;7.60;;;3.00;;
48897;SDS011;34713;50.038;20.000;2023-03-12T08:55:09;6.00;;;2.20;;
48897;SDS011;34713;50.038;20.000;2023-03-12T08:57:37;4.30;;;2.20;;
48897;SDS011;34713;50.038;20.000;2023-03-12T09:00:04;5.10;;;2.30;;
48897;SDS011;34713;50.038;20.000;2023-03-12T09:02:37;5.50;;;2.50;;
48897;SDS011;34713;50.038;20.000;2023-03-12T09:05:04;4.60;;;2.30;;
48897;SDS011;34713;50.038;20.000;2023-03-12T09:07:31;4.70;;;2.60;;
48897;SDS011;34713;50.038;20.000;2023-03-12T09:10:12;6.50;;;2.10;;
48897;SDS011;34713;50.038;20.000;2023-03-12T09:12:39;3.90;;;2.00;;
48897;SDS011;34713;50.038;20.000;2023-03-12T09:15:08;5.50;;;2.60;;
48897;SDS011;34713;50.038;20.000;2023-03-12T09:17:42;5.10;;;2.30;;
48897;SDS011;34713;50.038;20.000;2023-03-12T09:20:13;4.40;;;2.00;;
48897;SDS011;34713;50.038;20.000;2023-03-12T09:22:40;5.60;;;2.10;;
48897;SDS011;34713;50.038;20.000;2023-03-12T09:25:16;5.40;;;2.60;;
48897;SDS011;34713;50.038;20.000;2023-03-12T09:30:18;5.20;;;2.50;;
48897;SDS011;34713;50.038;20.000;2023-03-12T09:32:48;4.40;;;2.10;;
48897;SDS011;34713;50.038;20.000;2023-03-12T09:35:34;3.80;;;2.00;;
48897;SDS011;34713;50.038;20.000;2023-03-12T09:38:33;4.80;;;2.00;;
48897;SDS011;34713;50.038;20.000;2023-03-12T09:41:23;4.00;;;1.70;;
48897;SDS011;34713;50.038;20.000;2023-03-12T09:44:02;4.30;;;1.90;;
48897;SDS011;34713;50.038;20.000;2023-03-12T09:46:56;6.70;;;2.10;;
48897;SDS011;34713;50.038;20.000;2023-03-12T09:49:47;5.10;;;2.00;;
48897;SDS011;34713;50.038;20.000;2023-03-12T09:52:39;5.80;;;2.40;;
48897;SDS011;34713;50.038;20.000;2023-03-12T09:55:12;3.40;;;2.10;;
48897;SDS011;34713;50.038;20.000;2023-03-12T09:57:40;5.40;;;2.30;;
48897;SDS011;34713;50.038;20.000;2023-03-12T10:00:33;7.10;;;2.40;;
48897;SDS011;34713;50.038;20.000;2023-03-12T10:17:05;7.60;;;2.80;;
48897;SDS011;34713;50.038;20.000;2023-03-12T10:27:10;5.80;;;3.20;;
48897;SDS011;34713;50.038;20.000;2023-03-12T10:29:40;7.20;;;3.50;;
48897;SDS011;34713;50.038;20.000;2023-03-12T10:32:50;8.90;;;3.30;;
48897;SDS011;34713;50.038;20.000;2023-03-12T11:28:05;5.50;;;3.20;;
48897;SDS011;34713;50.038;20.000;2023-03-12T11:54:52;6.20;;;3.70;;
48897;SDS011;34713;50.038;20.000;2023-03-12T12:10:05;7.50;;;3.60;;
48897;SDS011;34713;50.038;20.000;2023-03-12T12:29:51;8.90;;;4.00;;
48897;SDS011;34713;50.038;20.000;2023-03-12T12:41:56;5.80;;;3.50;;
48897;SDS011;34713;50.038;20.000;2023-03-12T12:44:47;8.80;;;4.30;;
48897;SDS011;34713;50.038;20.000;2023-03-12T12:47:23;7.60;;;4.40;;
48897;SDS011;34713;50.038;20.000;2023-03-12T12:50:11;6.90;;;4.10;;
48897;SDS011;34713;50.038;20.000;2023-03-12T12:52:56;6.40;;;4.30;;
48897;SDS011;34713;50.038;20.000;2023-03-12T13:02:43;6.40;;;3.50;;
48897;SDS011;34713;50.038;20.000;2023-03-12T13:09:19;6.30;;;3.50;;
48897;SDS011;34713;50.038;20.000;2023-03-12T13:22:43;7.70;;;3.70;;
48897;SDS011;34713;50.038;20.000;2023-03-12T13:39:31;8.30;;;3.30;;
48897;SDS011;34713;50.038;20.000;2023-03-12T13:42:45;6.30;;;3.30;;
48897;SDS011;34713;50.038;20.000;2023-03-12T13:56:28;6.60;;;3.60;;
48897;SDS011;34713;50.038;20.000;2023-03-12T13:58:59;7.00;;;3.80;;
48897;SDS011;34713;50.038;20.000;2023-03-12T14:01:29;5.70;;;3.50;;
48897;SDS011;34713;50.038;20.000;2023-03-12T14:04:02;7.30;;;3.80;;
48897;SDS011;34713;50.038;20.000;2023-03-12T14:06:39;8.40;;;4.10;;
48897;SDS011;34713;50.038;20.000;2023-03-12T14:21:38;6.10;;;3.00;;
48897;SDS011;34713;50.038;20.000;2023-03-12T14:27:33;4.20;;;2.80;;
48897;SDS011;34713;50.038;20.000;2023-03-12T14:33:35;5.80;;;3.50;;
48897;SDS011;34713;50.038;20.000;2023-03-12T14:37:18;5.60;;;3.20;;
48897;SDS011;34713;50.038;20.000;2023-03-12T14:39:47;6.20;;;3.00;;
48897;SDS011;34713;50.038;20.000;2023-03-12T14:42:20;6.10;;;3.50;;
48897;SDS011;34713;50.038;20.000;2023-03-12T14:45:12;4.90;;;2.70;;
48897;SDS011;34713;50.038;20.000;2023-03-12T14:47:53;4.80;;;2.90;;
48897;SDS011;34713;50.038;20.000;2023-03-12T14:50:41;5.00;;;2.80;;
48897;SDS011;34713;50.038;20.000;2023-03-12T15:03:02;7.00;;;3.00;;
48897;SDS011;34713;50.038;20.000;2023-03-12T15:09:29;6.70;;;2.70;;
48897;SDS011;34713;50.038;20.000;2023-03-12T15:12:00;4.40;;;2.60;;
48897;SDS011;34713;50.038;20.000;2023-03-12T15:14:31;4.80;;;2.40;;
48897;SDS011;34713;50.038;20.000;2023-03-12T15:20:44;7.20;;;2.50;;
48897;SDS011;34713;50.038;20.000;2023-03-12T15:23:21;5.90;;;2.70;;
48897;SDS011;34713;50.038;20.000;2023-03-12T15:26:25;5.10;;;2.40;;
48897;SDS011;34713;50.038;20.000;2023-03-12T15:38:51;4.00;;;2.40;;
48897;SDS011;34713;50.038;20.000;2023-03-12T15:41:27;4.40;;;2.60;;
48897;SDS011;34713;50.038;20.000;2023-03-12T15:47:00;6.10;;;3.40;;
48897;SDS011;34713;50.038;20.000;2023-03-12T15:49:29;4.00;;;2.40;;
48897;SDS011;34713;50.038;20.000;2023-03-12T15:54:29;4.50;;;2.70;;
48897;SDS011;34713;50.038;20.000;2023-03-12T15:57:21;6.20;;;2.70;;
48897;SDS011;34713;50.038;20.000;2023-03-12T15:59:50;4.80;;;2.70;;
48897;SDS011;34713;50.038;20.000;2023-03-12T16:03:27;4.30;;;2.30;;
48897;SDS011;34713;50.038;20.000;2023-03-12T16:05:56;5.10;;;2.20;;
48897;SDS011;34713;50.038;20.000;2023-03-12T16:08:37;4.70;;;2.10;;
48897;SDS011;34713;50.038;20.000;2023-03-12T16:11:27;6.30;;;2.30;;
48897;SDS011;34713;50.038;20.000;2023-03-12T16:14:05;4.30;;;2.30;;
48897;SDS011;34713;50.038;20.000;2023-03-12T16:16:36;4.00;;;2.40;;
48897;SDS011;34713;50.038;20.000;2023-03-12T16:19:25;3.90;;;2.20;;
48897;SDS011;34713;50.038;20.000;2023-03-12T16:21:57;5.10;;;2.50;;
48897;SDS011;34713;50.038;20.000;2023-03-12T16:24:24;4.30;;;2.10;;
48897;SDS011;34713;50.038;20.000;2023-03-12T16:26:52;4.10;;;2.30;;
48897;SDS011;34713;50.038;20.000;2023-03-12T16:29:31;6.80;;;2.50;;
48897;SDS011;34713;50.038;20.000;2023-03-12T16:32:02;6.90;;;2.90;;
48897;SDS011;34713;50.038;20.000;2023-03-12T16:34:47;5.20;;;2.90;;
48897;SDS011;34713;50.038;20.000;2023-03-12T16:37:27;5.40;;;3.10;;
48897;SDS011;34713;50.038;20.000;2023-03-12T16:39:58;4.70;;;2.50;;
48897;SDS011;34713;50.038;20.000;2023-03-12T16:42:27;5.40;;;2.70;;
48897;SDS011;34713;50.038;20.000;2023-03-12T16:44:54;6.40;;;3.20;;
48897;SDS011;34713;50.038;20.000;2023-03-12T16:47:21;5.90;;;2.90;;
48897;SDS011;34713;50.038;20.000;2023-03-12T16:49:57;5.90;;;3.20;;
48897;SDS011;34713;50.038;20.000;2023-03-12T16:52:27;7.40;;;3.10;;
48897;SDS011;34713;50.038;20.000;2023-03-12T16:54:56;5.40;;;2.80;;
48897;SDS011;34713;50.038;20.000;2023-03-12T16:57:32;6.00;;;3.10;;
48897;SDS011;34713;50.038;20.000;2023-03-12T17:00:03;8.60;;;3.40;;
48897;SDS011;34713;50.038;20.000;2023-03-12T17:02:33;6.10;;;3.30;;
48897;SDS011;34713;50.038;20.000;2023-03-12T17:05:01;4.70;;;2.90;;
48897;SDS011;34713;50.038;20.000;2023-03-12T17:07:27;7.60;;;3.30;;
48897;SDS011;34713;50.038;20.000;2023-03-12T17:09:57;7.60;;;3.40;;
48897;SDS011;34713;50.038;20.000;2023-03-12T17:12:26;6.40;;;3.30;;
48897;SDS011;34713;50.038;20.000;2023-03-12T17:14:55;5.50;;;3.30;;
48897;SDS011;34713;50.038;20.000;2023-03-12T17:17:26;6.40;;;3.40;;
48897;SDS011;34713;50.038;20.000;2023-03-12T17:19:56;7.90;;;3.30;;
48897;SDS011;34713;50.038;20.000;2023-03-12T17:22:25;6.70;;;3.60;;
48897;SDS011;34713;50.038;20.000;2023-03-12T17:25:16;6.90;;;3.40;;
48897;SDS011;34713;50.038;20.000;2023-03-12T17:28:08;7.80;;;3.50;;
48897;SDS011;34713;50.038;20.000;2023-03-12T17:30:38;7.30;;;3.50;;
48897;SDS011;34713;50.038;20.000;2023-03-12T17:33:10;5.90;;;3.30;;
48897;SDS011;34713;50.038;20.000;2023-03-12T17:36:11;6.20;;;3.80;;
48897;SDS011;34713;50.038;20.000;2023-03-12T17:38:58;6.10;;;3.50;;
48897;SDS011;34713;50.038;20.000;2023-03-12T17:41:30;6.10;;;3.50;;
48897;SDS011;34713;50.038;20.000;2023-03-12T17:43:59;6.60;;;3.40;;
48897;SDS011;34713;50.038;20.000;2023-03-12T17:46:50;8.20;;;3.80;;
48897;SDS011;34713;50.038;20.000;2023-03-12T17:52:16;8.40;;;4.50;;
48897;SDS011;34713;50.038;20.000;2023-03-12T17:57:56;7.70;;;4.40;;
48897;SDS011;34713;50.038;20.000;2023-03-12T18:00:33;11.10;;;4.50;;
48897;SDS011;34713;50.038;20.000;2023-03-12T18:03:05;11.50;;;5.50;;
48897;SDS011;34713;50.038;20.000;2023-03-12T18:05:42;9.60;;;5.00;;
48897;SDS011;34713;50.038;20.000;2023-03-12T18:08:30;9.40;;;4.70;;
48897;SDS011;34713;50.038;20.000;2023-03-12T18:10:58;14.60;;;5.70;;
48897;SDS011;34713;50.038;20.000;2023-03-12T18:13:28;10.70;;;5.60;;
48897;SDS011;34713;50.038;20.000;2023-03-12T18:15:59;8.30;;;5.30;;
48897;SDS011;34713;50.038;20.000;2023-03-12T18:18:46;10.80;;;5.30;;
48897;SDS011;34713;50.038;20.000;2023-03-12T18:21:15;9.50;;;5.20;;
48897;SDS011;34713;50.038;20.000;2023-03-12T18:24:02;13.80;;;5.40;;
48897;SDS011;34713;50.038;20.000;2023-03-12T18:26:34;11.20;;;6.10;;
48897;SDS011;34713;50.038;20.000;2023-03-12T18:29:13;12.00;;;5.20;;
48897;SDS011;34713;50.038;20.000;2023-03-12T18:31:40;13.80;;;5.70;;
48897;SDS011;34713;50.038;20.000;2023-03-12T18:34:07;11.00;;;6.30;;
48897;SDS011;34713;50.038;20.000;2023-03-12T18:36:36;10.20;;;5.60;;
48897;SDS011;34713;50.038;20.000;2023-03-12T18:42:00;9.70;;;5.60;;
48897;SDS011;34713;50.038;20.000;2023-03-12T18:44:47;9.30;;;5.60;;
48897;SDS011;34713;50.038;20.000;2023-03-12T18:57:47;10.60;;;5.90;;
48897;SDS011;34713;50.038;20.000;2023-03-12T19:04:07;9.70;;;5.80;;
48897;SDS011;34713;50.038;20.000;2023-03-12T19:06:45;10.50;;;6.30;;
48897;SDS011;34713;50.038;20.000;2023-03-12T19:09:45;12.20;;;6.10;;
48897;SDS011;34713;50.038;20.000;2023-03-12T19:12:15;12.40;;;6.80;;
48897;SDS011;34713;50.038;20.000;2023-03-12T19:14:42;11.40;;;5.90;;
48897;SDS011;34713;50.038;20.000;2023-03-12T19:17:11;12.80;;;6.40;;
48897;SDS011;34713;50.038;20.000;2023-03-12T19:28:57;9.90;;;6.30;;
48897;SDS011;34713;50.038;20.000;2023-03-12T19:31:44;11.20;;;6.40;;
48897;SDS011;34713;50.038;20.000;2023-03-12T19:34:34;10.10;;;5.50;;
48897;SDS011;34713;50.038;20.000;2023-03-12T19:37:15;9.90;;;5.60;;
48897;SDS011;34713;50.038;20.000;2023-03-12T19:39:42;9.20;;;5.50;;
48897;SDS011;34713;50.038;20.000;2023-03-12T19:45:16;8.50;;;5.10;;
48897;SDS011;34713;50.038;20.000;2023-03-12T19:47:50;12.00;;;5.10;;
48897;SDS011;34713;50.038;20.000;2023-03-12T19:50:22;10.20;;;4.90;;
48897;SDS011;34713;50.038;20.000;2023-03-12T19:53:13;9.10;;;4.90;;
48897;SDS011;34713;50.038;20.000;2023-03-12T19:59:19;9.80;;;4.70;;
48897;SDS011;34713;50.038;20.000;2023-03-12T20:02:35;9.80;;;5.10;;
48897;SDS011;34713;50.038;20.000;2023-03-12T20:05:26;12.60;;;5.60;;
48897;SDS011;34713;50.038;20.000;2023-03-12T20:07:53;9.50;;;5.50;;
48897;SDS011;34713;50.038;20.000;2023-03-12T20:11:07;8.80;;;5.50;;
48897;SDS011;34713;50.038;20.000;2023-03-12T20:17:14;10.80;;;6.00;;
48897;SDS011;34713;50.038;20.000;2023-03-12T20:20:10;11.90;;;6.30;;
48897;SDS011;34713;50.038;20.000;2023-03-12T20:22:51;10.30;;;5.50;;
48897;SDS011;34713;50.038;20.000;2023-03-12T20:25:38;12.30;;;5.90;;
48897;SDS011;34713;50.038;20.000;2023-03-12T20:28:16;10.90;;;6.60;;
48897;SDS011;34713;50.038;20.000;2023-03-12T20:31:10;12.00;;;6.90;;
48897;SDS011;34713;50.038;20.000;2023-03-12T20:33:47;12.40;;;7.60;;
48897;SDS011;34713;50.038;20.000;2023-03-12T20:45:45;15.80;;;8.60;;
48897;SDS011;34713;50.038;20.000;2023-03-12T20:48:13;21.80;;;11.60;;
48897;SDS011;34713;50.038;20.000;2023-03-12T20:51:05;20.70;;;10.80;;
48897;SDS011;34713;50.038;20.000;2023-03-12T20:57:06;20.80;;;10.50;;
48897;SDS011;34713;50.038;20.000;2023-03-12T20:59:35;16.80;;;10.30;;
48897;SDS011;34713;50.038;20.000;2023-03-12T21:02:13;21.70;;;11.30;;
48897;SDS011;34713;50.038;20.000;2023-03-12T21:04:54;21.70;;;10.50;;
48897;SDS011;34713;50.038;20.000;2023-03-12T21:07:21;20.60;;;11.40;;
48897;SDS011;34713;50.038;20.000;2023-03-12T21:10:21;18.90;;;10.10;;
48897;SDS011;34713;50.038;20.000;2023-03-12T21:16:53;19.80;;;10.90;;
48897;SDS011;34713;50.038;20.000;2023-03-12T21:19:31;19.40;;;10.20;;
48897;SDS011;34713;50.038;20.000;2023-03-12T21:21:58;20.50;;;10.50;;
48897;SDS011;34713;50.038;20.000;2023-03-12T21:25:02;20.20;;;10.70;;
48897;SDS011;34713;50.038;20.000;2023-03-12T21:27:29;21.30;;;10.90;;
48897;SDS011;34713;50.038;20.000;2023-03-12T21:30:23;18.80;;;10.90;;
48897;SDS011;34713;50.038;20.000;2023-03-12T21:32:50;21.30;;;10.90;;
48897;SDS011;34713;50.038;20.000;2023-03-12T21:35:19;19.10;;;10.70;;
48897;SDS011;34713;50.038;20.000;2023-03-12T21:37:49;19.70;;;10.20;;
48897;SDS011;34713;50.038;20.000;2023-03-12T21:40:41;20.90;;;10.80;;
48897;SDS011;34713;50.038;20.000;2023-03-12T21:43:27;18.40;;;10.10;;
48897;SDS011;34713;50.038;20.000;2023-03-12T21:46:06;17.30;;;9.80;;
48897;SDS011;34713;50.038;20.000;2023-03-12T21:52:24;15.60;;;9.20;;
48897;SDS011;34713;50.038;20.000;2023-03-12T21:55:15;15.10;;;8.80;;
48897;SDS011;34713;50.038;20.000;2023-03-12T21:58:06;15.90;;;8.50;;
48897;SDS011;34713;50.038;20.000;2023-03-12T22:00:33;14.10;;;7.40;;
48897;SDS011;34713;50.038;20.000;2023-03-12T22:03:00;18.90;;;8.30;;
48897;SDS011;34713;50.038;20.000;2023-03-12T22:08:39;10.10;;;6.40;;
48897;SDS011;34713;50.038;20.000;2023-03-12T22:14:55;12.00;;;6.10;;
48897;SDS011;34713;50.038;20.000;2023-03-12T22:17:25;12.90;;;6.70;;